sensor_id;sensor_type;location;lat;lon;timestamp;P1;durP1;ratioP1;P2;durP2;ratioP2
9667;SDS011;4872;48.316;10.650;2023-04-29T04:06:35;17.43;;;15.23;;
9667;SDS011;4872;48.316;10.650;2023-04-29T04:09:03;16.23;;;14.20;;
9667;SDS011;4872;48.316;10.650;2023-04-29T04:11:29;17.83;;;14.80;;
9667;SDS011;4872;48.316;10.650;2023-04-29T04:13:56;16.77;;;14.97;;
9667;SDS011;4872;48.316;10.650;2023-04-29T04:16:23;14.53;;;13.10;;
9667;SDS011;4872;48.316;10.650;2023-04-29T04:18:50;17.20;;;13.90;;
9667;SDS011;4872;48.316;10.650;2023-04-29T04:21:17;16.67;;;13.87;;
9667;SDS011;4872;48.316;10.650;2023-04-29T04:23:45;15.63;;;13.87;;
9667;SDS011;4872;48.316;10.650;2023-04-29T04:26:11;15.27;;;13.67;;
9667;SDS011;4872;48.316;10.650;2023-04-29T04:28:38;14.97;;;13.53;;
9667;SDS011;4872;48.316;10.650;2023-04-29T04:31:05;15.83;;;13.60;;
9667;SDS011;4872;48.316;10.650;2023-04-29T04:33:32;16.23;;;13.50;;
9667;SDS011;4872;48.316;10.650;2023-04-29T04:35:59;14.60;;;12.30;;
9667;SDS011;4872;48.316;10.650;2023-04-29T04:38:25;15.93;;;12.80;;
9667;SDS011;4872;48.316;10.650;2023-04-29T04:40:53;16.43;;;13.53;;
9667;SDS011;4872;48.316;10.650;2023-04-29T04:43:20;15.47;;;13.73;;
9667;SDS011;4872;48.316;10.650;2023-04-29T04:45:47;15.20;;;13.43;;
9667;SDS011;4872;48.316;10.650;2023-04-29T04:48:14;14.50;;;12.47;;
9667;SDS011;4872;48.316;10.650;2023-04-29T04:50:40;15.47;;;13.87;;
9667;SDS011;4872;48.316;10.650;2023-04-29T04:53:07;14.77;;;12.90;;
9667;SDS011;4872;48.316;10.650;2023-04-29T04:55:34;16.27;;;13.47;;
9667;SDS011;4872;48.316;10.650;2023-04-29T04:58:02;18.77;;;12.63;;
9667;SDS011;4872;48.316;10.650;2023-04-29T05:00:29;14.20;;;12.80;;
9667;SDS011;4872;48.316;10.650;2023-04-29T05:02:55;13.57;;;11.83;;
9667;SDS011;4872;48.316;10.650;2023-04-29T05:05:22;14.13;;;12.53;;
9667;SDS011;4872;48.316;10.650;2023-04-29T05:07:49;14.07;;;12.60;;
9667;SDS011;4872;48.316;10.650;2023-04-29T05:10:16;14.47;;;12.97;;
9667;SDS011;4872;48.316;10.650;2023-04-29T05:12:42;13.53;;;12.13;;
9667;SDS011;4872;48.316;10.650;2023-04-29T05:15:11;14.40;;;12.17;;
9667;SDS011;4872;48.316;10.650;2023-04-29T05:17:39;13.43;;;12.07;;
9667;SDS011;4872;48.316;10.650;2023-04-29T05:20:06;14.57;;;12.33;;
9667;SDS011;4872;48.316;10.650;2023-04-29T05:22:33;13.97;;;12.47;;
9667;SDS011;4872;48.316;10.650;2023-04-29T05:25:00;13.90;;;12.60;;
9667;SDS011;4872;48.316;10.650;2023-04-29T05:27:27;13.93;;;12.30;;
9667;SDS011;4872;48.316;10.650;2023-04-29T05:29:54;13.63;;;12.07;;
9667;SDS011;4872;48.316;10.650;2023-04-29T05:32:23;13.57;;;12.13;;
9667;SDS011;4872;48.316;10.650;2023-04-29T05:34:49;12.43;;;11.17;;
9667;SDS011;4872;48.316;10.650;2023-04-29T05:37:16;13.17;;;11.77;;
9667;SDS011;4872;48.316;10.650;2023-04-29T05:39:43;12.70;;;11.40;;
9667;SDS011;4872;48.316;10.650;2023-04-29T05:42:10;12.97;;;11.67;;
9667;SDS011;4872;48.316;10.650;2023-04-29T05:44:36;16.60;;;13.73;;
9667;SDS011;4872;48.316;10.650;2023-04-29T05:47:03;17.03;;;15.23;;
9667;SDS011;4872;48.316;10.650;2023-04-29T05:49:31;16.80;;;15.10;;
9667;SDS011;4872;48.316;10.650;2023-04-29T05:51:58;12.90;;;11.67;;
9667;SDS011;4872;48.316;10.650;2023-04-29T05:54:28;12.80;;;11.50;;
9667;SDS011;4872;48.316;10.650;2023-04-29T05:56:54;11.33;;;10.13;;
9667;SDS011;4872;48.316;10.650;2023-04-29T05:59:21;11.40;;;10.30;;
9667;SDS011;4872;48.316;10.650;2023-04-29T06:01:48;12.07;;;10.87;;
9667;SDS011;4872;48.316;10.650;2023-04-29T06:04:15;10.57;;;9.57;;
9667;SDS011;4872;48.316;10.650;2023-04-29T06:06:43;9.70;;;8.80;;
9667;SDS011;4872;48.316;10.650;2023-04-29T06:09:09;10.90;;;9.80;;
9667;SDS011;4872;48.316;10.650;2023-04-29T06:11:39;11.33;;;10.23;;
9667;SDS011;4872;48.316;10.650;2023-04-29T06:14:06;10.70;;;9.67;;
9667;SDS011;4872;48.316;10.650;2023-04-29T06:16:32;10.47;;;9.40;;
9667;SDS011;4872;48.316;10.650;2023-04-29T06:18:59;12.50;;;9.63;;
9667;SDS011;4872;48.316;10.650;2023-04-29T06:21:26;9.83;;;8.90;;
9667;SDS011;4872;48.316;10.650;2023-04-29T06:23:54;9.47;;;8.47;;
9667;SDS011;4872;48.316;10.650;2023-04-29T06:26:21;10.40;;;9.30;;
9667;SDS011;4872;48.316;10.650;2023-04-29T06:28:47;10.23;;;9.23;;
9667;SDS011;4872;48.316;10.650;2023-04-29T06:31:15;10.03;;;9.03;;
9667;SDS011;4872;48.316;10.650;2023-04-29T06:33:41;10.07;;;9.07;;
9667;SDS011;4872;48.316;10.650;2023-04-29T06:36:08;10.63;;;8.73;;
9667;SDS011;4872;48.316;10.650;2023-04-29T06:38:35;9.20;;;8.30;;
9667;SDS011;4872;48.316;10.650;2023-04-29T06:41:03;8.00;;;7.27;;
9667;SDS011;4872;48.316;10.650;2023-04-29T06:43:30;8.23;;;7.43;;
9667;SDS011;4872;48.316;10.650;2023-04-29T06:45:56;9.87;;;8.60;;
9667;SDS011;4872;48.316;10.650;2023-04-29T06:48:23;9.03;;;8.13;;
9667;SDS011;4872;48.316;10.650;2023-04-29T06:50:52;8.47;;;7.67;;
9667;SDS011;4872;48.316;10.650;2023-04-29T06:53:19;7.93;;;7.10;;
9667;SDS011;4872;48.316;10.650;2023-04-29T06:55:46;7.97;;;6.73;;
9667;SDS011;4872;48.316;10.650;2023-04-29T06:58:15;7.87;;;7.07;;
9667;SDS011;4872;48.316;10.650;2023-04-29T07:00:43;7.60;;;6.90;;
9667;SDS011;4872;48.316;10.650;2023-04-29T07:03:10;7.77;;;7.07;;
9667;SDS011;4872;48.316;10.650;2023-04-29T07:05:37;8.30;;;7.50;;
9667;SDS011;4872;48.316;10.650;2023-04-29T07:08:05;7.97;;;7.17;;
9667;SDS011;4872;48.316;10.650;2023-04-29T07:10:33;8.87;;;7.37;;
9667;SDS011;4872;48.316;10.650;2023-04-29T07:13:00;8.63;;;7.13;;
9667;SDS011;4872;48.316;10.650;2023-04-29T07:15:28;7.93;;;6.90;;
9667;SDS011;4872;48.316;10.650;2023-04-29T07:18:02;6.90;;;6.23;;
9667;SDS011;4872;48.316;10.650;2023-04-29T07:20:29;9.30;;;7.23;;
9667;SDS011;4872;48.316;10.650;2023-04-29T07:22:56;8.00;;;7.30;;
9667;SDS011;4872;48.316;10.650;2023-04-29T07:25:22;7.80;;;7.10;;
9667;SDS011;4872;48.316;10.650;2023-04-29T07:27:50;8.40;;;6.90;;
9667;SDS011;4872;48.316;10.650;2023-04-29T07:30:17;8.33;;;7.53;;
9667;SDS011;4872;48.316;10.650;2023-04-29T07:32:45;8.27;;;7.10;;
9667;SDS011;4872;48.316;10.650;2023-04-29T07:35:12;19.20;;;6.90;;
9667;SDS011;4872;48.316;10.650;2023-04-29T07:37:39;7.23;;;6.50;;
9667;SDS011;4872;48.316;10.650;2023-04-29T07:40:07;7.60;;;6.90;;
9667;SDS011;4872;48.316;10.650;2023-04-29T07:42:34;9.17;;;7.20;;
9667;SDS011;4872;48.316;10.650;2023-04-29T07:45:01;8.07;;;7.27;;
9667;SDS011;4872;48.316;10.650;2023-04-29T07:47:28;8.43;;;7.63;;
9667;SDS011;4872;48.316;10.650;2023-04-29T07:49:56;7.53;;;6.80;;
9667;SDS011;4872;48.316;10.650;2023-04-29T07:52:23;8.60;;;6.20;;
9667;SDS011;4872;48.316;10.650;2023-04-29T07:54:50;6.80;;;6.20;;
9667;SDS011;4872;48.316;10.650;2023-04-29T07:57:17;5.50;;;5.00;;
9667;SDS011;4872;48.316;10.650;2023-04-29T07:59:43;5.87;;;5.27;;
9667;SDS011;4872;48.316;10.650;2023-04-29T08:02:10;5.63;;;4.70;;
9667;SDS011;4872;48.316;10.650;2023-04-29T08:04:38;6.03;;;5.20;;
9667;SDS011;4872;48.316;10.650;2023-04-29T08:07:06;5.33;;;4.83;;
9667;SDS011;4872;48.316;10.650;2023-04-29T08:09:33;5.23;;;4.73;;
9667;SDS011;4872;48.316;10.650;2023-04-29T08:12:00;5.00;;;4.60;;
9667;SDS011;4872;48.316;10.650;2023-04-29T08:14:27;5.47;;;5.00;;
9667;SDS011;4872;48.316;10.650;2023-04-29T08:16:53;5.20;;;4.70;;
9667;SDS011;4872;48.316;10.650;2023-04-29T08:19:20;4.77;;;4.20;;
9667;SDS011;4872;48.316;10.650;2023-04-29T08:21:47;3.97;;;3.67;;
9667;SDS011;4872;48.316;10.650;2023-04-29T08:24:15;5.30;;;4.73;;
9667;SDS011;4872;48.316;10.650;2023-04-29T08:26:41;5.80;;;5.03;;
9667;SDS011;4872;48.316;10.650;2023-04-29T08:29:08;5.37;;;4.90;;
9667;SDS011;4872;48.316;10.650;2023-04-29T08:31:35;4.53;;;4.13;;
9667;SDS011;4872;48.316;10.650;2023-04-29T08:34:02;4.00;;;3.70;;
9667;SDS011;4872;48.316;10.650;2023-04-29T08:36:28;4.03;;;3.47;;
9667;SDS011;4872;48.316;10.650;2023-04-29T08:38:55;5.63;;;3.33;;
9667;SDS011;4872;48.316;10.650;2023-04-29T08:41:23;4.20;;;3.10;;
9667;SDS011;4872;48.316;10.650;2023-04-29T08:43:50;2.90;;;2.60;;
9667;SDS011;4872;48.316;10.650;2023-04-29T08:46:17;3.50;;;2.67;;
9667;SDS011;4872;48.316;10.650;2023-04-29T08:48:45;3.20;;;2.90;;
9667;SDS011;4872;48.316;10.650;2023-04-29T08:51:12;2.73;;;2.53;;
9667;SDS011;4872;48.316;10.650;2023-04-29T08:53:39;3.23;;;2.33;;
9667;SDS011;4872;48.316;10.650;2023-04-29T08:56:07;3.37;;;2.63;;
9667;SDS011;4872;48.316;10.650;2023-04-29T08:58:39;3.50;;;2.73;;
9667;SDS011;4872;48.316;10.650;2023-04-29T09:01:08;3.73;;;2.93;;
9667;SDS011;4872;48.316;10.650;2023-04-29T09:03:36;3.17;;;2.70;;
9667;SDS011;4872;48.316;10.650;2023-04-29T09:06:10;4.53;;;2.50;;
9667;SDS011;4872;48.316;10.650;2023-04-29T09:08:37;2.40;;;2.23;;
9667;SDS011;4872;48.316;10.650;2023-04-29T09:11:06;2.40;;;2.20;;
9667;SDS011;4872;48.316;10.650;2023-04-29T09:13:34;3.73;;;2.23;;
9667;SDS011;4872;48.316;10.650;2023-04-29T09:16:02;3.73;;;2.40;;
9667;SDS011;4872;48.316;10.650;2023-04-29T09:18:42;3.00;;;1.97;;
9667;SDS011;4872;48.316;10.650;2023-04-29T09:21:14;3.27;;;2.13;;
9667;SDS011;4872;48.316;10.650;2023-04-29T09:23:43;2.47;;;2.00;;
9667;SDS011;4872;48.316;10.650;2023-04-29T09:26:10;2.37;;;2.07;;
9667;SDS011;4872;48.316;10.650;2023-04-29T09:28:37;2.97;;;2.47;;
9667;SDS011;4872;48.316;10.650;2023-04-29T09:31:09;1.90;;;1.80;;
9667;SDS011;4872;48.316;10.650;2023-04-29T09:33:48;2.10;;;1.90;;
9667;SDS011;4872;48.316;10.650;2023-04-29T09:39:00;2.53;;;2.30;;
9667;SDS011;4872;48.316;10.650;2023-04-29T09:41:27;2.53;;;2.33;;
9667;SDS011;4872;48.316;10.650;2023-04-29T09:44:01;3.00;;;2.30;;
9667;SDS011;4872;48.316;10.650;2023-04-29T09:46:30;3.70;;;2.50;;
9667;SDS011;4872;48.316;10.650;2023-04-29T09:48:57;3.07;;;2.30;;
9667;SDS011;4872;48.316;10.650;2023-04-29T09:51:24;2.10;;;2.00;;
9667;SDS011;4872;48.316;10.650;2023-04-29T09:53:51;2.30;;;2.10;;
9667;SDS011;4872;48.316;10.650;2023-04-29T09:56:18;3.47;;;2.10;;
9667;SDS011;4872;48.316;10.650;2023-04-29T09:58:45;3.03;;;2.10;;
9667;SDS011;4872;48.316;10.650;2023-04-29T10:01:12;2.77;;;2.40;;
9667;SDS011;4872;48.316;10.650;2023-04-29T10:03:44;3.67;;;2.33;;
9667;SDS011;4872;48.316;10.650;2023-04-29T10:06:13;2.20;;;2.00;;
9667;SDS011;4872;48.316;10.650;2023-04-29T10:08:43;1.90;;;1.80;;
9667;SDS011;4872;48.316;10.650;2023-04-29T10:11:13;2.50;;;2.20;;
9667;SDS011;4872;48.316;10.650;2023-04-29T10:13:41;2.33;;;1.83;;
9667;SDS011;4872;48.316;10.650;2023-04-29T10:16:10;1.63;;;1.53;;
9667;SDS011;4872;48.316;10.650;2023-04-29T10:18:47;2.23;;;1.80;;
9667;SDS011;4872;48.316;10.650;2023-04-29T10:21:17;1.60;;;1.50;;
9667;SDS011;4872;48.316;10.650;2023-04-29T10:23:46;2.10;;;1.80;;
9667;SDS011;4872;48.316;10.650;2023-04-29T10:26:14;2.60;;;1.50;;
9667;SDS011;4872;48.316;10.650;2023-04-29T10:28:42;3.50;;;1.23;;
9667;SDS011;4872;48.316;10.650;2023-04-29T10:31:12;1.43;;;1.23;;
9667;SDS011;4872;48.316;10.650;2023-04-29T10:33:42;2.50;;;1.60;;
9667;SDS011;4872;48.316;10.650;2023-04-29T10:36:12;1.60;;;1.50;;
9667;SDS011;4872;48.316;10.650;2023-04-29T10:38:41;1.60;;;1.50;;
9667;SDS011;4872;48.316;10.650;2023-04-29T10:41:14;2.43;;;1.70;;
9667;SDS011;4872;48.316;10.650;2023-04-29T10:43:45;1.70;;;1.60;;
9667;SDS011;4872;48.316;10.650;2023-04-29T10:46:19;1.83;;;1.73;;
9667;SDS011;4872;48.316;10.650;2023-04-29T10:48:47;1.70;;;1.60;;
9667;SDS011;4872;48.316;10.650;2023-04-29T10:51:27;2.03;;;1.80;;
9667;SDS011;4872;48.316;10.650;2023-04-29T10:53:57;1.93;;;1.83;;
9667;SDS011;4872;48.316;10.650;2023-04-29T10:56:34;1.60;;;1.50;;
9667;SDS011;4872;48.316;10.650;2023-04-29T10:59:08;1.93;;;1.80;;
9667;SDS011;4872;48.316;10.650;2023-04-29T11:01:44;2.10;;;1.90;;
9667;SDS011;4872;48.316;10.650;2023-04-29T11:04:14;1.50;;;1.40;;
9667;SDS011;4872;48.316;10.650;2023-04-29T11:06:47;1.77;;;1.67;;
9667;SDS011;4872;48.316;10.650;2023-04-29T11:09:18;3.30;;;1.80;;
9667;SDS011;4872;48.316;10.650;2023-04-29T11:11:56;1.83;;;1.50;;
9667;SDS011;4872;48.316;10.650;2023-04-29T11:14:28;1.73;;;1.50;;
9667;SDS011;4872;48.316;10.650;2023-04-29T11:16:57;2.10;;;1.60;;
9667;SDS011;4872;48.316;10.650;2023-04-29T11:19:25;2.60;;;1.50;;
9667;SDS011;4872;48.316;10.650;2023-04-29T11:22:10;2.87;;;1.40;;
9667;SDS011;4872;48.316;10.650;2023-04-29T11:24:48;1.60;;;1.50;;
9667;SDS011;4872;48.316;10.650;2023-04-29T11:27:16;2.17;;;1.93;;
9667;SDS011;4872;48.316;10.650;2023-04-29T11:29:44;2.07;;;1.50;;
9667;SDS011;4872;48.316;10.650;2023-04-29T11:32:11;7.90;;;5.10;;
9667;SDS011;4872;48.316;10.650;2023-04-29T11:34:38;4.67;;;4.17;;
9667;SDS011;4872;48.316;10.650;2023-04-29T11:37:05;1.73;;;1.63;;
9667;SDS011;4872;48.316;10.650;2023-04-29T11:39:33;3.00;;;2.00;;
9667;SDS011;4872;48.316;10.650;2023-04-29T11:42:04;1.33;;;1.23;;
9667;SDS011;4872;48.316;10.650;2023-04-29T11:44:32;2.50;;;1.30;;
9667;SDS011;4872;48.316;10.650;2023-04-29T11:47:02;2.37;;;1.40;;
9667;SDS011;4872;48.316;10.650;2023-04-29T11:49:30;1.73;;;1.63;;
9667;SDS011;4872;48.316;10.650;2023-04-29T11:51:57;2.40;;;1.70;;
9667;SDS011;4872;48.316;10.650;2023-04-29T11:54:24;1.33;;;1.23;;
9667;SDS011;4872;48.316;10.650;2023-04-29T11:56:53;2.80;;;1.67;;
9667;SDS011;4872;48.316;10.650;2023-04-29T11:59:20;1.60;;;1.50;;
9667;SDS011;4872;48.316;10.650;2023-04-29T12:01:47;1.57;;;1.47;;
9667;SDS011;4872;48.316;10.650;2023-04-29T12:04:14;1.83;;;1.40;;
9667;SDS011;4872;48.316;10.650;2023-04-29T12:06:41;1.37;;;1.13;;
9667;SDS011;4872;48.316;10.650;2023-04-29T12:09:08;1.30;;;1.20;;
9667;SDS011;4872;48.316;10.650;2023-04-29T12:11:35;1.50;;;1.40;;
9667;SDS011;4872;48.316;10.650;2023-04-29T12:14:03;1.63;;;1.43;;
9667;SDS011;4872;48.316;10.650;2023-04-29T12:16:31;1.50;;;1.17;;
9667;SDS011;4872;48.316;10.650;2023-04-29T12:18:58;1.67;;;1.00;;
9667;SDS011;4872;48.316;10.650;2023-04-29T12:21:25;2.73;;;1.80;;
9667;SDS011;4872;48.316;10.650;2023-04-29T12:23:52;2.40;;;1.70;;
9667;SDS011;4872;48.316;10.650;2023-04-29T12:26:19;4.67;;;1.93;;
9667;SDS011;4872;48.316;10.650;2023-04-29T12:28:48;1.37;;;1.27;;
9667;SDS011;4872;48.316;10.650;2023-04-29T12:31:20;1.23;;;1.13;;
9667;SDS011;4872;48.316;10.650;2023-04-29T12:33:48;1.17;;;1.03;;
9667;SDS011;4872;48.316;10.650;2023-04-29T12:36:19;6.20;;;2.80;;
9667;SDS011;4872;48.316;10.650;2023-04-29T12:38:46;1.93;;;1.10;;
9667;SDS011;4872;48.316;10.650;2023-04-29T12:41:13;1.63;;;0.93;;
9667;SDS011;4872;48.316;10.650;2023-04-29T12:43:41;0.70;;;0.70;;
9667;SDS011;4872;48.316;10.650;2023-04-29T12:46:09;1.70;;;1.60;;
9667;SDS011;4872;48.316;10.650;2023-04-29T12:48:39;1.10;;;0.93;;
9667;SDS011;4872;48.316;10.650;2023-04-29T12:51:07;1.17;;;1.10;;
9667;SDS011;4872;48.316;10.650;2023-04-29T12:53:35;1.67;;;1.10;;
9667;SDS011;4872;48.316;10.650;2023-04-29T12:56:02;1.10;;;1.00;;
9667;SDS011;4872;48.316;10.650;2023-04-29T12:58:30;1.30;;;1.20;;
9667;SDS011;4872;48.316;10.650;2023-04-29T13:00:58;1.40;;;1.30;;
9667;SDS011;4872;48.316;10.650;2023-04-29T13:03:25;1.13;;;1.03;;
9667;SDS011;4872;48.316;10.650;2023-04-29T13:05:53;2.03;;;0.90;;
9667;SDS011;4872;48.316;10.650;2023-04-29T13:08:20;1.17;;;1.07;;
9667;SDS011;4872;48.316;10.650;2023-04-29T13:10:47;0.77;;;0.77;;
9667;SDS011;4872;48.316;10.650;2023-04-29T13:13:13;0.80;;;0.80;;
9667;SDS011;4872;48.316;10.650;2023-04-29T13:15:40;1.20;;;1.10;;
9667;SDS011;4872;48.316;10.650;2023-04-29T13:18:07;0.90;;;0.90;;
9667;SDS011;4872;48.316;10.650;2023-04-29T13:20:34;1.00;;;1.00;;
9667;SDS011;4872;48.316;10.650;2023-04-29T13:23:02;0.80;;;0.80;;
9667;SDS011;4872;48.316;10.650;2023-04-29T13:25:29;0.80;;;0.80;;
9667;SDS011;4872;48.316;10.650;2023-04-29T13:27:55;0.80;;;0.80;;
9667;SDS011;4872;48.316;10.650;2023-04-29T13:30:22;1.00;;;1.00;;
9667;SDS011;4872;48.316;10.650;2023-04-29T13:32:49;1.00;;;1.00;;
9667;SDS011;4872;48.316;10.650;2023-04-29T13:35:16;7.80;;;1.03;;
9667;SDS011;4872;48.316;10.650;2023-04-29T13:37:42;2.30;;;1.10;;
9667;SDS011;4872;48.316;10.650;2023-04-29T13:40:11;0.97;;;0.90;;
9667;SDS011;4872;48.316;10.650;2023-04-29T13:42:38;0.90;;;0.90;;
9667;SDS011;4872;48.316;10.650;2023-04-29T13:45:05;1.13;;;0.80;;
9667;SDS011;4872;48.316;10.650;2023-04-29T13:47:32;1.30;;;0.80;;
9667;SDS011;4872;48.316;10.650;2023-04-29T13:50:00;1.23;;;1.13;;
9667;SDS011;4872;48.316;10.650;2023-04-29T13:52:27;1.33;;;0.90;;
9667;SDS011;4872;48.316;10.650;2023-04-29T13:54:55;0.80;;;0.80;;
9667;SDS011;4872;48.316;10.650;2023-04-29T13:57:32;0.77;;;0.77;;
9667;SDS011;4872;48.316;10.650;2023-04-29T14:00:05;1.07;;;0.80;;
9667;SDS011;4872;48.316;10.650;2023-04-29T14:02:44;2.80;;;0.97;;
9667;SDS011;4872;48.316;10.650;2023-04-29T14:05:19;0.77;;;0.70;;
9667;SDS011;4872;48.316;10.650;2023-04-29T14:07:49;2.50;;;1.10;;
9667;SDS011;4872;48.316;10.650;2023-04-29T14:10:20;1.10;;;1.00;;
9667;SDS011;4872;48.316;10.650;2023-04-29T14:12:48;0.97;;;0.97;;
9667;SDS011;4872;48.316;10.650;2023-04-29T14:15:21;0.80;;;0.80;;
9667;SDS011;4872;48.316;10.650;2023-04-29T14:17:48;1.00;;;1.00;;
9667;SDS011;4872;48.316;10.650;2023-04-29T14:20:17;1.70;;;1.10;;
9667;SDS011;4872;48.316;10.650;2023-04-29T14:22:44;0.90;;;0.90;;
9667;SDS011;4872;48.316;10.650;2023-04-29T14:25:11;1.43;;;0.97;;
9667;SDS011;4872;48.316;10.650;2023-04-29T14:27:38;1.00;;;1.00;;
9667;SDS011;4872;48.316;10.650;2023-04-29T14:30:07;1.43;;;1.33;;
9667;SDS011;4872;48.316;10.650;2023-04-29T14:32:34;1.07;;;1.07;;
9667;SDS011;4872;48.316;10.650;2023-04-29T14:35:01;0.90;;;0.90;;
9667;SDS011;4872;48.316;10.650;2023-04-29T14:37:29;0.80;;;0.80;;
9667;SDS011;4872;48.316;10.650;2023-04-29T14:39:58;1.23;;;0.90;;
9667;SDS011;4872;48.316;10.650;2023-04-29T14:42:25;1.30;;;1.00;;
9667;SDS011;4872;48.316;10.650;2023-04-29T14:44:52;1.00;;;1.00;;
9667;SDS011;4872;48.316;10.650;2023-04-29T14:47:21;2.83;;;1.17;;
9667;SDS011;4872;48.316;10.650;2023-04-29T14:49:48;1.33;;;1.10;;
9667;SDS011;4872;48.316;10.650;2023-04-29T14:52:15;1.40;;;1.27;;
9667;SDS011;4872;48.316;10.650;2023-04-29T14:54:42;1.10;;;1.00;;
9667;SDS011;4872;48.316;10.650;2023-04-29T14:57:11;0.90;;;0.90;;
9667;SDS011;4872;48.316;10.650;2023-04-29T14:59:38;1.23;;;0.83;;
9667;SDS011;4872;48.316;10.650;2023-04-29T15:02:05;1.00;;;1.00;;
9667;SDS011;4872;48.316;10.650;2023-04-29T15:04:34;1.00;;;1.00;;
9667;SDS011;4872;48.316;10.650;2023-04-29T15:07:01;0.80;;;0.80;;
9667;SDS011;4872;48.316;10.650;2023-04-29T15:09:28;0.80;;;0.80;;
9667;SDS011;4872;48.316;10.650;2023-04-29T15:11:56;0.90;;;0.90;;
9667;SDS011;4872;48.316;10.650;2023-04-29T15:14:23;0.93;;;0.90;;
9667;SDS011;4872;48.316;10.650;2023-04-29T15:16:50;0.90;;;0.90;;
9667;SDS011;4872;48.316;10.650;2023-04-29T15:19:16;2.13;;;1.13;;
9667;SDS011;4872;48.316;10.650;2023-04-29T15:21:45;0.97;;;0.97;;
9667;SDS011;4872;48.316;10.650;2023-04-29T15:24:12;1.00;;;1.00;;
9667;SDS011;4872;48.316;10.650;2023-04-29T15:26:39;1.30;;;1.20;;
9667;SDS011;4872;48.316;10.650;2023-04-29T15:29:06;1.00;;;1.00;;
9667;SDS011;4872;48.316;10.650;2023-04-29T15:31:33;1.80;;;1.10;;
9667;SDS011;4872;48.316;10.650;2023-04-29T15:33:59;1.40;;;1.03;;
9667;SDS011;4872;48.316;10.650;2023-04-29T15:36:26;2.90;;;1.40;;
9667;SDS011;4872;48.316;10.650;2023-04-29T15:38:56;1.00;;;1.00;;
9667;SDS011;4872;48.316;10.650;2023-04-29T15:41:23;1.00;;;1.00;;
9667;SDS011;4872;48.316;10.650;2023-04-29T15:43:51;2.40;;;1.30;;
9667;SDS011;4872;48.316;10.650;2023-04-29T15:46:18;1.60;;;1.50;;
9667;SDS011;4872;48.316;10.650;2023-04-29T15:48:45;1.93;;;1.77;;
9667;SDS011;4872;48.316;10.650;2023-04-29T15:51:12;1.97;;;1.63;;
9667;SDS011;4872;48.316;10.650;2023-04-29T15:53:39;1.73;;;1.63;;
9667;SDS011;4872;48.316;10.650;2023-04-29T15:56:09;1.80;;;1.43;;
9667;SDS011;4872;48.316;10.650;2023-04-29T15:58:36;1.53;;;1.20;;
9667;SDS011;4872;48.316;10.650;2023-04-29T16:01:02;1.30;;;1.20;;
9667;SDS011;4872;48.316;10.650;2023-04-29T16:03:29;1.33;;;1.23;;
9667;SDS011;4872;48.316;10.650;2023-04-29T16:05:56;2.20;;;1.33;;
9667;SDS011;4872;48.316;10.650;2023-04-29T16:08:23;1.40;;;1.30;;
9667;SDS011;4872;48.316;10.650;2023-04-29T16:10:50;2.33;;;1.60;;
9667;SDS011;4872;48.316;10.650;2023-04-29T16:13:18;1.60;;;1.50;;
9667;SDS011;4872;48.316;10.650;2023-04-29T16:15:45;1.87;;;1.30;;
9667;SDS011;4872;48.316;10.650;2023-04-29T16:18:11;2.00;;;1.30;;
9667;SDS011;4872;48.316;10.650;2023-04-29T16:20:38;1.60;;;1.50;;
9667;SDS011;4872;48.316;10.650;2023-04-29T16:23:05;1.97;;;1.50;;
9667;SDS011;4872;48.316;10.650;2023-04-29T16:25:36;1.33;;;1.30;;
9667;SDS011;4872;48.316;10.650;2023-04-29T16:28:05;2.17;;;1.30;;
9667;SDS011;4872;48.316;10.650;2023-04-29T16:30:33;1.50;;;1.40;;
9667;SDS011;4872;48.316;10.650;2023-04-29T16:33:00;2.23;;;1.40;;
9667;SDS011;4872;48.316;10.650;2023-04-29T16:35:27;1.67;;;1.57;;
9667;SDS011;4872;48.316;10.650;2023-04-29T16:37:54;2.10;;;1.97;;
9667;SDS011;4872;48.316;10.650;2023-04-29T16:40:21;2.20;;;2.00;;
9667;SDS011;4872;48.316;10.650;2023-04-29T16:42:49;1.60;;;1.43;;
9667;SDS011;4872;48.316;10.650;2023-04-29T16:45:17;2.47;;;1.90;;
9667;SDS011;4872;48.316;10.650;2023-04-29T16:47:45;1.77;;;1.67;;
9667;SDS011;4872;48.316;10.650;2023-04-29T16:50:12;2.17;;;1.80;;
9667;SDS011;4872;48.316;10.650;2023-04-29T16:52:41;1.77;;;1.67;;
9667;SDS011;4872;48.316;10.650;2023-04-29T16:55:08;1.50;;;1.40;;
9667;SDS011;4872;48.316;10.650;2023-04-29T16:57:36;2.00;;;1.40;;
9667;SDS011;4872;48.316;10.650;2023-04-29T17:00:03;1.60;;;1.40;;
9667;SDS011;4872;48.316;10.650;2023-04-29T17:02:34;2.47;;;1.67;;
9667;SDS011;4872;48.316;10.650;2023-04-29T17:05:02;2.00;;;1.90;;
9667;SDS011;4872;48.316;10.650;2023-04-29T17:07:30;3.20;;;2.27;;
9667;SDS011;4872;48.316;10.650;2023-04-29T17:09:57;2.20;;;2.00;;
9667;SDS011;4872;48.316;10.650;2023-04-29T17:12:24;1.97;;;1.87;;
9667;SDS011;4872;48.316;10.650;2023-04-29T17:14:50;2.40;;;2.20;;
9667;SDS011;4872;48.316;10.650;2023-04-29T17:17:18;2.80;;;2.20;;
9667;SDS011;4872;48.316;10.650;2023-04-29T17:19:45;2.43;;;2.23;;
9667;SDS011;4872;48.316;10.650;2023-04-29T17:22:15;3.47;;;3.17;;
9667;SDS011;4872;48.316;10.650;2023-04-29T17:24:42;3.27;;;3.07;;
9667;SDS011;4872;48.316;10.650;2023-04-29T17:27:10;4.40;;;4.00;;
9667;SDS011;4872;48.316;10.650;2023-04-29T17:29:36;4.73;;;3.60;;
9667;SDS011;4872;48.316;10.650;2023-04-29T17:32:03;3.20;;;3.00;;
9667;SDS011;4872;48.316;10.650;2023-04-29T17:34:35;4.53;;;4.13;;
9667;SDS011;4872;48.316;10.650;2023-04-29T17:37:02;6.33;;;4.80;;
9667;SDS011;4872;48.316;10.650;2023-04-29T17:39:31;6.37;;;5.23;;
9667;SDS011;4872;48.316;10.650;2023-04-29T17:41:58;5.17;;;4.10;;
9667;SDS011;4872;48.316;10.650;2023-04-29T17:44:26;4.80;;;4.40;;
9667;SDS011;4872;48.316;10.650;2023-04-29T17:46:52;5.43;;;4.03;;
9667;SDS011;4872;48.316;10.650;2023-04-29T17:49:19;4.93;;;4.43;;
9667;SDS011;4872;48.316;10.650;2023-04-29T17:51:46;5.83;;;5.27;;
9667;SDS011;4872;48.316;10.650;2023-04-29T17:54:13;6.43;;;5.50;;
9667;SDS011;4872;48.316;10.650;2023-04-29T17:56:41;6.03;;;5.27;;
9667;SDS011;4872;48.316;10.650;2023-04-29T17:59:07;6.60;;;6.00;;
9667;SDS011;4872;48.316;10.650;2023-04-29T18:01:35;6.07;;;5.47;;
9667;SDS011;4872;48.316;10.650;2023-04-29T18:04:02;8.93;;;6.13;;
9667;SDS011;4872;48.316;10.650;2023-04-29T18:06:29;7.83;;;5.77;;
9667;SDS011;4872;48.316;10.650;2023-04-29T18:08:56;7.17;;;6.47;;
9667;SDS011;4872;48.316;10.650;2023-04-29T18:11:23;7.10;;;6.27;;
9667;SDS011;4872;48.316;10.650;2023-04-29T18:13:52;8.37;;;6.93;;
9667;SDS011;4872;48.316;10.650;2023-04-29T18:16:19;7.80;;;6.73;;
9667;SDS011;4872;48.316;10.650;2023-04-29T18:18:46;7.20;;;6.50;;
9667;SDS011;4872;48.316;10.650;2023-04-29T18:21:18;6.60;;;5.90;;
9667;SDS011;4872;48.316;10.650;2023-04-29T18:23:46;7.53;;;5.97;;
9667;SDS011;4872;48.316;10.650;2023-04-29T18:26:12;7.60;;;6.80;;
9667;SDS011;4872;48.316;10.650;2023-04-29T18:28:39;7.97;;;7.07;;
9667;SDS011;4872;48.316;10.650;2023-04-29T18:31:07;8.43;;;7.00;;
9667;SDS011;4872;48.316;10.650;2023-04-29T18:33:34;6.93;;;5.70;;
9667;SDS011;4872;48.316;10.650;2023-04-29T18:36:01;6.77;;;6.13;;
9667;SDS011;4872;48.316;10.650;2023-04-29T18:38:28;7.97;;;6.60;;
9667;SDS011;4872;48.316;10.650;2023-04-29T18:40:55;6.30;;;5.47;;
9667;SDS011;4872;48.316;10.650;2023-04-29T18:43:21;6.20;;;5.33;;
9667;SDS011;4872;48.316;10.650;2023-04-29T18:45:52;6.47;;;5.63;;
9667;SDS011;4872;48.316;10.650;2023-04-29T18:48:20;5.87;;;4.97;;
9667;SDS011;4872;48.316;10.650;2023-04-29T18:50:49;5.93;;;5.30;;
9667;SDS011;4872;48.316;10.650;2023-04-29T18:53:16;6.53;;;5.60;;
9667;SDS011;4872;48.316;10.650;2023-04-29T18:55:43;6.23;;;5.20;;
9667;SDS011;4872;48.316;10.650;2023-04-29T18:58:10;7.50;;;6.37;;
9667;SDS011;4872;48.316;10.650;2023-04-29T19:00:37;6.73;;;6.07;;
9667;SDS011;4872;48.316;10.650;2023-04-29T19:03:04;7.50;;;6.30;;
9667;SDS011;4872;48.316;10.650;2023-04-29T19:05:32;7.73;;;6.47;;
9667;SDS011;4872;48.316;10.650;2023-04-29T19:07:59;10.03;;;7.37;;
9667;SDS011;4872;48.316;10.650;2023-04-29T19:10:25;9.47;;;8.33;;